Time;durP1;ratioP1;P1;durP2;ratioP2;P2;SDS_P1;SDS_P2;PMS_P1;PMS_P2;Temp;Humidity;BMP_temperature;BMP_pressure;BME280_temperature;BME280_humidity;BME280_pressure;Samples;Min_cycle;Max_cycle;Signal;HPM_P1;HPM_P2
2022/08/11 00:01:54;;;;;;;3.97;2.60;;;22.90;2.40;;;;;;5065072;28;20460;-84
2022/08/11 00:04:25;;;;;;;5.90;3.00;;;22.90;12.00;;;;;;5067323;28;20466;-85
2022/08/11 00:06:52;;;;;;;3.20;2.57;;;22.80;2.90;;;;;;5063817;28;20437;-85
2022/08/11 00:09:20;;;;;;;5.60;2.90;;;22.80;3.30;;;;;;5072203;28;20500;-85
2022/08/11 00:11:51;;;;;;;3.77;3.00;;;22.80;2.70;;;;;;5065807;28;20449;-85
2022/08/11 00:14:26;;;;;;;5.23;2.80;;;22.70;3.30;;;;;;5071337;28;20496;-85
2022/08/11 00:17:00;;;;;;;5.60;2.93;;;22.70;3.80;;;;;;5069004;28;20429;-84
2022/08/11 00:19:29;;;;;;;7.10;3.20;;;22.70;4.00;;;;;;5061924;28;20489;-84
2022/08/11 00:21:55;;;;;;;5.50;3.13;;;22.60;4.30;;;;;;5064067;28;20459;-84
2022/08/11 00:24:22;;;;;;;6.27;3.07;;;22.50;4.20;;;;;;5069256;28;22625;-84
2022/08/11 00:26:50;;;;;;;5.83;2.87;;;22.40;4.70;;;;;;5060757;28;20441;-84
2022/08/11 00:29:17;;;;;;;6.37;2.93;;;22.40;5.50;;;;;;5060994;28;20821;-84
2022/08/11 00:31:46;;;;;;;7.70;3.17;;;22.30;4.70;;;;;;5063696;28;20861;-84
2022/08/11 00:34:13;;;;;;;3.13;2.73;;;22.20;5.60;;;;;;5069710;28;20447;-84
2022/08/11 00:36:49;;;;;;;6.10;3.90;;;22.20;6.00;;;;;;5067007;28;20468;-84
2022/08/11 00:39:16;;;;;;;7.43;3.20;;;22.20;6.60;;;;;;5068572;28;20822;-84
2022/08/11 00:42:04;;;;;;;6.10;3.10;;;22.20;6.00;;;;;;5064435;28;20435;-84
2022/08/11 00:44:48;;;;;;;10.57;3.80;;;22.20;6.90;;;;;;5067877;28;20964;-84
2022/08/11 00:47:20;;;;;;;6.73;3.60;;;22.20;6.70;;;;;;5067544;28;20435;-84
2022/08/11 00:50:03;;;;;;;3.80;2.60;;;22.20;11.60;;;;;;5066185;28;20831;-84
2022/08/11 00:52:50;;;;;;;11.73;3.30;;;22.20;7.80;;;;;;5067653;28;20530;-84
2022/08/11 00:55:57;;;;;;;5.20;3.37;;;22.10;8.10;;;;;;5066780;28;20944;-84
2022/08/11 00:59:00;;;;;;;6.63;3.60;;;22.10;8.70;;;;;;5067042;28;20471;-84
2022/08/11 01:01:33;;;;;;;5.77;3.23;;;22.10;8.40;;;;;;5066812;28;20437;-84
2022/08/11 01:04:36;;;;;;;8.13;4.30;;;22.10;9.60;;;;;;5067555;28;20939;-84
2022/08/11 01:07:31;;;;;;;7.60;3.37;;;22.00;9.30;;;;;;5068933;28;20424;-85
2022/08/11 01:10:17;;;;;;;4.87;3.20;;;21.90;10.00;;;;;;5066735;28;20446;-84
2022/08/11 01:13:00;;;;;;;7.00;3.50;;;21.90;10.10;;;;;;5067312;28;20435;-84
2022/08/11 01:16:04;;;;;;;4.00;3.60;;;21.80;10.10;;;;;;5066300;28;20472;-84
2022/08/11 01:18:57;;;;;;;8.03;4.27;;;21.80;11.10;;;;;;5068365;28;20467;-84
2022/08/11 01:21:59;;;;;;;7.03;3.60;;;21.70;11.30;;;;;;5066414;28;20436;-84
2022/08/11 01:24:37;;;;;;;4.50;3.00;;;21.70;11.50;;;;;;5066902;28;20578;-85
2022/08/11 01:27:24;;;;;;;5.37;3.43;;;21.60;11.80;;;;;;5063707;28;20496;-85
2022/08/11 01:30:14;;;;;;;5.73;3.90;;;21.50;12.80;;;;;;5067530;28;20424;-84
2022/08/11 01:32:43;;;;;;;5.00;4.10;;;21.50;12.50;;;;;;5070607;28;20439;-84
2022/08/11 01:35:50;;;;;;;3.83;3.17;;;21.40;12.60;;;;;;5066414;28;20497;-84
2022/08/11 01:38:21;;;;;;;7.30;4.00;;;21.40;12.80;;;;;;5060907;28;20489;-84
2022/08/11 01:41:18;;;;;;;4.37;3.40;;;21.30;12.80;;;;;;5068802;28;20949;-84
2022/08/11 01:50:29;;;;;;;4.40;3.73;;;21.20;14.10;;;;;;5072823;28;20468;-84
2022/08/11 01:53:19;;;;;;;7.10;3.60;;;21.20;14.60;;;;;;5050122;28;20499;-83
2022/08/11 01:56:03;;;;;;;3.47;3.17;;;21.10;15.00;;;;;;5072876;28;20461;-84
2022/08/11 01:58:44;;;;;;;5.50;3.23;;;21.10;15.40;;;;;;5073589;28;20465;-84
2022/08/11 02:01:19;;;;;;;5.00;3.50;;;21.10;15.80;;;;;;5068177;28;20480;-84
2022/08/11 02:04:08;;;;;;;3.93;3.40;;;21.00;16.20;;;;;;5069770;28;20430;-84
2022/08/11 02:07:01;;;;;;;3.83;3.43;;;21.00;16.80;;;;;;5068017;28;20445;-84
2022/08/11 02:09:53;;;;;;;11.17;4.20;;;20.90;17.90;;;;;;5065507;28;20765;-85
2022/08/11 02:12:46;;;;;;;4.20;3.40;;;20.90;17.60;;;;;;5067430;28;20446;-84
2022/08/11 02:15:27;;;;;;;7.40;3.70;;;20.80;18.10;;;;;;5068018;28;20461;-84
2022/08/11 02:18:09;;;;;;;4.60;3.30;;;20.80;18.00;;;;;;5066870;28;20463;-84
2022/08/11 02:24:13;;;;;;;4.60;3.53;;;20.70;19.20;;;;;;5068145;28;20436;-84
2022/08/11 02:27:15;;;;;;;4.03;3.37;;;20.70;20.00;;;;;;5071181;28;20463;-83
2022/08/11 02:29:51;;;;;;;5.13;3.27;;;20.70;20.60;;;;;;5034492;28;20433;-84
2022/08/11 02:35:40;;;;;;;5.90;4.07;;;20.60;21.30;;;;;;5072176;28;20491;-84
2022/08/11 02:38:44;;;;;;;10.20;3.80;;;20.60;23.50;;;;;;5071767;28;20460;-84
2022/08/11 02:44:46;;;;;;;5.00;3.83;;;20.50;22.50;;;;;;5058975;28;20465;-83
2022/08/11 02:47:31;;;;;;;5.10;3.83;;;20.40;23.70;;;;;;5061278;28;20432;-84
2022/08/11 02:50:14;;;;;;;6.87;4.57;;;20.40;24.50;;;;;;5067096;28;20684;-84
2022/08/11 02:53:08;;;;;;;5.10;3.63;;;20.40;24.60;;;;;;5066144;28;20437;-84
2022/08/11 02:55:40;;;;;;;4.30;3.63;;;20.40;25.70;;;;;;5070927;28;20453;-84
2022/08/11 02:58:34;;;;;;;7.60;4.33;;;20.30;25.90;;;;;;5065166;28;20474;-84
2022/08/11 03:01:15;;;;;;;3.70;3.40;;;20.30;26.70;;;;;;5070854;28;20436;-84
2022/08/11 03:04:14;;;;;;;5.67;3.80;;;20.30;26.80;;;;;;5066816;28;20430;-85
2022/08/11 03:07:09;;;;;;;4.90;3.80;;;20.20;27.50;;;;;;5071899;28;20473;-84
2022/08/11 03:09:57;;;;;;;6.17;3.50;;;20.20;28.80;;;;;;5069998;28;20446;-84
2022/08/11 03:18:41;;;;;;;6.13;3.57;;;20.10;30.70;;;;;;5069760;28;20471;-84
2022/08/11 03:21:44;;;;;;;9.80;4.20;;;20.10;30.90;;;;;;5076670;28;20497;-84
2022/08/11 03:24:19;;;;;;;7.10;3.77;;;20.00;32.20;;;;;;5077101;28;20477;-84
2022/08/11 03:27:09;;;;;;;4.40;4.00;;;20.00;33.10;;;;;;5072645;28;20509;-84
2022/08/11 03:29:46;;;;;;;4.27;3.83;;;20.00;34.90;;;;;;5069548;28;20439;-84
2022/08/11 03:32:20;;;;;;;5.60;4.47;;;20.00;34.80;;;;;;5074007;28;20506;-84
2022/08/11 03:34:47;;;;;;;7.23;4.47;;;20.00;36.20;;;;;;5071854;28;20484;-84
2022/08/11 03:43:44;;;;;;;5.67;4.30;;;19.80;39.00;;;;;;5056511;28;20435;-84
2022/08/11 03:46:18;;;;;;;7.70;4.37;;;19.70;40.20;;;;;;5076117;28;20445;-84
2022/08/11 03:49:35;;;;;;;8.50;4.43;;;19.70;41.30;;;;;;5075825;28;20440;-84
2022/08/11 03:52:13;;;;;;;4.63;4.23;;;19.60;42.70;;;;;;5040057;28;20936;-84
2022/08/11 03:54:48;;;;;;;5.20;4.70;;;19.50;43.60;;;;;;5070602;28;20445;-84
2022/08/11 03:57:44;;;;;;;5.30;4.53;;;19.30;45.70;;;;;;5070995;28;20436;-85
2022/08/11 04:00:10;;;;;;;8.17;5.53;;;19.30;46.30;;;;;;5076522;28;20438;-84
2022/08/11 04:02:35;;;;;;;5.00;4.50;;;19.10;47.40;;;;;;5071244;28;20429;-84
2022/08/11 04:05:13;;;;;;;7.73;4.00;;;19.10;49.20;;;;;;5073783;28;20199;-84
2022/08/11 04:07:57;;;;;;;4.70;4.20;;;19.00;52.40;;;;;;5069266;28;20181;-83
2022/08/11 04:11:00;;;;;;;7.20;3.90;;;19.00;54.50;;;;;;5071999;28;20889;-83
2022/08/11 04:13:41;;;;;;;6.20;4.53;;;18.90;56.10;;;;;;5070438;28;20441;-83
2022/08/11 04:16:58;;;;;;;10.63;4.37;;;19.00;57.10;;;;;;5073555;28;21114;-83
2022/08/11 04:19:46;;;;;;;6.93;4.07;;;19.00;58.10;;;;;;5069215;28;22262;-84
2022/08/11 04:22:30;;;;;;;6.03;4.50;;;19.00;58.80;;;;;;5070182;28;20485;-83
2022/08/11 04:25:33;;;;;;;6.40;4.73;;;19.10;59.80;;;;;;5072035;28;20457;-83
2022/08/11 04:28:11;;;;;;;5.20;4.10;;;19.10;59.60;;;;;;5068928;28;20840;-83
2022/08/11 04:30:48;;;;;;;5.20;4.37;;;19.20;61.50;;;;;;5070625;28;20556;-83
2022/08/11 04:33:51;;;;;;;5.27;4.50;;;19.20;62.90;;;;;;5066484;28;20429;-83
2022/08/11 04:40:19;;;;;;;6.97;4.40;;;19.30;63.90;;;;;;5023661;28;20535;-83
2022/08/11 04:43:23;;;;;;;6.37;4.70;;;19.30;66.70;;;;;;5069930;28;20449;-83
2022/08/11 04:46:18;;;;;;;6.77;5.13;;;19.20;69.10;;;;;;5071640;28;20459;-83
2022/08/11 05:01:41;;;;;;;8.30;4.53;;;19.30;75.10;;;;;;5073937;28;20453;-85
2022/08/11 05:07:30;;;;;;;10.80;4.50;;;19.50;75.10;;;;;;5074331;28;20426;-85
2022/08/11 05:10:13;;;;;;;8.10;4.50;;;19.60;76.30;;;;;;5053595;28;20428;-86
2022/08/11 05:27:09;;;;;;;10.73;4.30;;;19.60;75.80;;;;;;5049899;28;21055;-85
2022/08/11 05:36:00;;;;;;;7.30;5.00;;;20.70;76.60;;;;;;5051604;28;20466;-87
2022/08/11 05:57:56;;;;;;;14.67;4.97;;;40.60;46.30;;;;;;5051951;28;21062;-87
2022/08/11 06:00:23;;;;;;;13.17;4.83;;;41.90;38.70;;;;;;5053326;28;20412;-88
2022/08/11 06:03:06;;;;;;;15.27;4.47;;;42.70;31.20;;;;;;5052624;28;20418;-86
2022/08/11 06:05:36;;;;;;;11.70;5.67;;;43.50;25.00;;;;;;5052489;28;20419;-87
2022/08/11 06:08:04;;;;;;;17.23;5.20;;;44.20;20.60;;;;;;5051605;28;20464;-86
2022/08/11 06:10:32;;;;;;;13.73;4.60;;;45.10;16.80;;;;;;5034447;28;20934;-87
2022/08/11 06:12:59;;;;;;;21.70;4.97;;;45.90;12.90;;;;;;5052209;28;20769;-86
2022/08/11 06:15:26;;;;;;;18.83;5.93;;;46.90;9.80;;;;;;5052590;28;20420;-88
2022/08/11 06:17:56;;;;;;;17.13;4.33;;;47.40;6.40;;;;;;5033773;28;20802;-86
2022/08/11 06:20:24;;;;;;;16.60;5.17;;;48.10;2.80;;;;;;5052145;28;20874;-87
2022/08/11 06:23:02;;;;;;;31.40;5.10;;;48.70;1.00;;;;;;5052479;28;20911;-87
2022/08/11 06:25:34;;;;;;;33.50;6.50;;;49.40;1.00;;;;;;5052282;28;20516;-88
2022/08/11 06:28:03;;;;;;;20.70;4.97;;;49.50;1.00;;;;;;5051935;28;20466;-87
2022/08/11 06:30:34;;;;;;;35.13;5.10;;;49.50;1.00;;;;;;5055301;28;20773;-88
2022/08/11 06:33:03;;;;;;;17.57;5.17;;;49.70;1.00;;;;;;5052643;28;20416;-87
2022/08/11 06:35:53;;;;;;;20.83;5.20;;;49.90;1.00;;;;;;5052236;28;20415;-87
2022/08/11 06:38:37;;;;;;;12.87;3.80;;;50.60;1.00;;;;;;5049207;28;20465;-87
2022/08/11 06:41:30;;;;;;;11.37;3.43;;;50.50;1.00;;;;;;5055628;28;20423;-87
2022/08/11 06:44:12;;;;;;;7.40;3.50;;;50.20;1.00;;;;;;5055886;28;20419;-87
2022/08/11 06:46:40;;;;;;;10.97;3.40;;;50.20;1.00;;;;;;5056007;28;20438;-87
2022/08/11 06:51:10;;;;;;;8.00;3.33;;;50.40;1.00;;;;;;5055998;28;20469;-87
2022/08/11 06:51:59;;;;;;;4.50;2.60;;;50.80;1.00;;;;;;5055806;28;20518;-87
2022/08/11 06:54:27;;;;;;;6.87;3.33;;;50.90;1.00;;;;;;5056099;28;20275;-86
2022/08/11 07:02:36;;;;;;;7.67;3.07;;;50.80;1.00;;;;;;5056462;28;20418;-86
2022/08/11 07:05:20;;;;;;;4.13;2.83;;;50.80;1.00;;;;;;5056159;28;20460;-87
2022/08/11 07:16:28;;;;;;;14.83;3.10;;;51.90;1.00;;;;;;5054727;28;20192;-87
2022/08/11 07:30:13;;;;;;;10.97;2.97;;;51.90;1.00;;;;;;5056020;28;20215;-87
2022/08/11 07:32:48;;;;;;;5.33;3.20;;;51.60;1.00;;;;;;5055898;28;20423;-86
2022/08/11 07:35:23;;;;;;;5.20;2.90;;;51.90;1.00;;;;;;5055694;28;20164;-87
2022/08/11 07:37:57;;;;;;;5.60;2.60;;;52.00;1.00;;;;;;5055347;28;20291;-87
2022/08/11 07:40:23;;;;;;;8.07;3.50;;;52.20;1.00;;;;;;5056042;28;20204;-87
2022/08/11 07:42:50;;;;;;;6.03;3.27;;;52.10;1.00;;;;;;5037614;28;20176;-87
2022/08/11 07:53:32;;;;;;;3.40;3.10;;;51.50;1.00;;;;;;5056098;28;20926;-87
2022/08/11 07:56:00;;;;;;;8.50;3.23;;;51.70;1.00;;;;;;5055420;28;20177;-87
2022/08/11 08:17:57;;;;;;;5.97;2.83;;;52.70;1.00;;;;;;5053834;28;20277;-85
2022/08/11 08:20:44;;;;;;;8.10;3.27;;;52.30;1.00;;;;;;5056574;28;20502;-87
2022/08/11 08:23:11;;;;;;;6.17;3.10;;;52.20;1.00;;;;;;5052311;28;20585;-87
2022/08/11 08:25:40;;;;;;;10.63;3.83;;;52.10;1.00;;;;;;5054889;28;20821;-86
2022/08/11 08:28:13;;;;;;;6.13;3.37;;;51.90;1.00;;;;;;5054387;28;20444;-87
2022/08/11 08:30:46;;;;;;;3.87;2.50;;;52.00;1.00;;;;;;5054822;28;20407;-86
2022/08/11 08:33:17;;;;;;;3.17;2.50;;;52.60;1.00;;;;;;5054756;28;20821;-87
2022/08/11 08:35:44;;;;;;;5.80;2.43;;;53.00;1.00;;;;;;5036691;28;20210;-86
2022/08/11 08:38:10;;;;;;;5.47;2.57;;;52.90;1.00;;;;;;5054435;28;20508;-86
2022/08/11 08:40:38;;;;;;;4.47;3.03;;;52.80;1.00;;;;;;5054929;28;20188;-87
2022/08/11 08:43:09;;;;;;;3.77;2.73;;;52.80;1.00;;;;;;5037097;28;20181;-87
2022/08/11 08:45:36;;;;;;;5.00;2.40;;;52.60;1.00;;;;;;5055276;28;20424;-87
2022/08/11 08:48:08;;;;;;;7.23;3.60;;;53.40;1.00;;;;;;5054031;28;20265;-86
2022/08/11 08:53:31;;;;;;;4.67;2.50;;;54.10;1.00;;;;;;5054817;28;20207;-87
2022/08/11 08:56:02;;;;;;;3.20;2.03;;;53.60;1.00;;;;;;5054663;28;20288;-86
2022/08/11 08:58:32;;;;;;;5.10;2.63;;;53.50;1.00;;;;;;5054961;28;20244;-86
2022/08/11 09:00:59;;;;;;;8.13;2.30;;;53.50;1.00;;;;;;5054129;28;20223;-87
2022/08/11 09:03:26;;;;;;;4.00;2.10;;;53.80;1.00;;;;;;5053704;28;20189;-87
2022/08/11 09:05:54;;;;;;;3.30;2.40;;;53.40;1.00;;;;;;5054144;28;20544;-87
2022/08/11 09:08:22;;;;;;;5.53;2.30;;;53.30;1.00;;;;;;5053775;28;20193;-86
2022/08/11 09:11:48;;;;;;;2.77;2.30;;;53.30;1.00;;;;;;5053775;28;20178;-86
2022/08/11 09:13:36;;;;;;;6.90;2.50;;;53.40;1.00;;;;;;5053559;28;20219;-86
2022/08/11 09:16:04;;;;;;;6.00;2.47;;;53.50;1.00;;;;;;5053373;28;20268;-86
2022/08/11 09:18:31;;;;;;;5.53;2.13;;;53.90;1.00;;;;;;5053606;28;20228;-87
2022/08/11 09:20:57;;;;;;;4.13;2.27;;;53.30;1.00;;;;;;5053546;28;20172;-86
2022/08/11 09:28:54;;;;;;;3.83;1.73;;;52.70;1.00;;;;;;5053612;28;20446;-86
2022/08/11 09:31:21;;;;;;;8.03;2.07;;;52.90;1.00;;;;;;5035430;28;20271;-86
2022/08/11 09:33:50;;;;;;;2.30;2.10;;;53.10;1.00;;;;;;5053288;28;20411;-86
2022/08/11 09:41:48;;;;;;;5.93;1.90;;;52.40;1.00;;;;;;5053735;28;20410;-86
2022/08/11 09:46:59;;;;;;;4.80;1.97;;;51.40;1.00;;;;;;5053012;28;20409;-86
2022/08/11 09:49:26;;;;;;;13.37;2.40;;;51.30;1.00;;;;;;5052687;28;20447;-86
2022/08/11 09:51:53;;;;;;;2.83;2.00;;;51.10;1.00;;;;;;5053117;28;20968;-85
2022/08/11 09:54:22;;;;;;;2.60;1.77;;;51.30;1.00;;;;;;5052901;28;20473;-87
2022/08/11 09:59:38;;;;;;;4.37;2.00;;;50.70;1.00;;;;;;5052267;28;20517;-87
2022/08/11 10:02:06;;;;;;;5.57;2.27;;;50.90;1.00;;;;;;5053234;28;20419;-86
2022/08/11 10:04:41;;;;;;;6.30;1.60;;;50.90;1.00;;;;;;5052764;28;20421;-86
2022/08/11 10:07:09;;;;;;;3.67;1.90;;;50.60;1.00;;;;;;5052398;28;20501;-86
2022/08/11 10:09:50;;;;;;;2.47;2.27;;;50.80;1.00;;;;;;5052921;28;21003;-86
2022/08/11 10:12:31;;;;;;;7.90;1.80;;;51.10;1.00;;;;;;5034833;28;20439;-86
2022/08/11 10:15:32;;;;;;;3.50;1.60;;;51.30;1.00;;;;;;5053029;28;20476;-87
2022/08/11 10:20:53;;;;;;;3.37;2.07;;;51.20;1.00;;;;;;5052375;28;20419;-86
2022/08/11 10:28:52;;;;;;;3.83;2.20;;;50.50;1.00;;;;;;5053265;28;20480;-86
2022/08/11 10:34:05;;;;;;;5.43;2.30;;;49.30;1.00;;;;;;5052158;28;20418;-85
2022/08/11 10:36:34;;;;;;;5.07;2.37;;;49.30;1.00;;;;;;5051947;28;20419;-86
2022/08/11 10:39:03;;;;;;;3.30;2.00;;;49.80;1.00;;;;;;5052337;28;20455;-87
2022/08/11 10:44:14;;;;;;;4.23;2.30;;;49.90;1.00;;;;;;5052124;28;20434;-85
2022/08/11 10:49:26;;;;;;;3.97;2.47;;;49.70;1.00;;;;;;5051968;28;20445;-86
2022/08/11 11:00:13;;;;;;;5.43;2.40;;;48.50;1.00;;;;;;5053891;28;20938;-85
2022/08/11 11:02:40;;;;;;;3.57;2.23;;;48.20;1.00;;;;;;5034454;28;20996;-86
2022/08/11 11:05:27;;;;;;;4.33;2.00;;;48.40;1.00;;;;;;5051963;28;20441;-86
2022/08/11 11:10:58;;;;;;;7.60;2.80;;;48.10;1.00;;;;;;5052186;28;20976;-86
2022/08/11 11:18:59;;;;;;;7.43;2.60;;;48.00;1.00;;;;;;5051755;28;20528;-86
2022/08/11 11:21:24;;;;;;;6.43;2.40;;;47.90;1.00;;;;;;5052037;28;20477;-86
2022/08/11 11:23:58;;;;;;;9.80;2.57;;;47.40;1.00;;;;;;5052006;28;20423;-86
2022/08/11 11:26:49;;;;;;;5.00;1.73;;;47.00;1.00;;;;;;5053441;28;20169;-86
2022/08/11 11:29:45;;;;;;;3.40;2.57;;;47.00;1.00;;;;;;5054983;28;20432;-86
2022/08/11 11:32:34;;;;;;;4.57;2.13;;;46.70;1.00;;;;;;5054777;28;20399;-85
2022/08/11 11:35:09;;;;;;;5.57;2.10;;;47.00;1.00;;;;;;5052759;28;20439;-86
2022/08/11 11:37:35;;;;;;;6.80;2.80;;;47.00;1.00;;;;;;5054134;28;20407;-85
2022/08/11 11:40:09;;;;;;;3.93;2.03;;;46.80;1.00;;;;;;5055066;28;20447;-86
2022/08/11 11:42:35;;;;;;;6.23;2.30;;;46.90;1.00;;;;;;5054650;28;20416;-86
2022/08/11 11:45:02;;;;;;;8.63;2.63;;;47.10;1.00;;;;;;5055205;28;20427;-85
2022/08/11 11:47:29;;;;;;;2.23;2.00;;;46.90;1.00;;;;;;5053915;28;20431;-86
2022/08/11 11:49:55;;;;;;;4.23;2.43;;;46.40;1.00;;;;;;5054806;28;20424;-86
2022/08/11 11:52:22;;;;;;;2.93;2.13;;;46.10;1.00;;;;;;5054728;28;20778;-86
2022/08/11 11:54:52;;;;;;;4.23;2.20;;;45.90;1.00;;;;;;5036699;28;20448;-86
2022/08/11 12:03:00;;;;;;;5.90;1.87;;;46.50;1.00;;;;;;5054600;28;20502;-85
2022/08/11 12:05:27;;;;;;;2.60;1.90;;;46.70;1.00;;;;;;5054283;28;21065;-87
2022/08/11 12:10:46;;;;;;;4.20;2.30;;;46.90;1.00;;;;;;5054699;28;20415;-85
2022/08/11 12:16:02;;;;;;;4.33;2.23;;;45.80;1.00;;;;;;5054092;28;20439;-86
2022/08/11 12:18:30;;;;;;;5.60;2.57;;;45.30;1.00;;;;;;5053785;28;20463;-85
2022/08/11 12:20:58;;;;;;;13.20;2.40;;;45.70;1.00;;;;;;5053902;28;20438;-86
2022/08/11 12:28:52;;;;;;;3.13;2.73;;;46.40;1.00;;;;;;5054280;28;21006;-85
2022/08/11 12:31:21;;;;;;;6.40;2.23;;;46.00;1.00;;;;;;5035439;28;20506;-85
2022/08/11 12:33:47;;;;;;;3.97;2.33;;;46.00;1.00;;;;;;5053336;28;20227;-85
2022/08/11 12:36:15;;;;;;;4.73;2.37;;;45.80;1.00;;;;;;5034774;28;20916;-85
2022/08/11 12:38:46;;;;;;;6.13;2.60;;;45.40;1.00;;;;;;5053360;28;20205;-86
2022/08/11 12:46:45;;;;;;;4.93;2.60;;;44.60;1.00;;;;;;5052998;28;20491;-85
2022/08/11 12:52:07;;;;;;;3.63;2.33;;;44.30;1.00;;;;;;5053285;28;20507;-85
2022/08/11 12:58:14;;;;;;;4.40;2.40;;;43.90;1.00;;;;;;5052983;28;20419;-85
2022/08/11 12:58:15;;;;;;;8.90;2.93;;;43.40;1.00;;;;;;5052187;28;20520;-85
2022/08/11 13:06:12;;;;;;;3.00;2.10;;;42.20;1.00;;;;;;5052438;28;20473;-84
2022/08/11 13:08:39;;;;;;;3.37;2.43;;;42.00;1.00;;;;;;5035214;28;20448;-85
2022/08/11 13:13:53;;;;;;;3.33;2.47;;;42.20;1.00;;;;;;5052874;28;20470;-85
2022/08/11 13:16:21;;;;;;;5.00;2.20;;;42.50;1.00;;;;;;5052038;28;20492;-85
2022/08/11 13:18:47;;;;;;;4.17;2.53;;;42.60;1.00;;;;;;5052955;28;20463;-85
2022/08/11 13:21:14;;;;;;;3.30;2.40;;;42.70;1.00;;;;;;5052298;28;20416;-85
2022/08/11 13:23:41;;;;;;;3.37;2.40;;;42.40;1.00;;;;;;5034939;28;20427;-85
2022/08/11 13:26:07;;;;;;;3.87;2.57;;;42.00;1.00;;;;;;5051880;28;20428;-85
2022/08/11 13:28:35;;;;;;;4.60;2.30;;;41.60;1.00;;;;;;5052277;28;20440;-85
2022/08/11 13:31:10;;;;;;;4.60;2.50;;;41.20;1.00;;;;;;5052152;28;20442;-85
2022/08/11 13:33:48;;;;;;;3.13;2.10;;;41.00;1.00;;;;;;5052488;28;20507;-85
2022/08/11 13:36:19;;;;;;;6.43;2.60;;;40.90;1.00;;;;;;5033982;28;20424;-85
2022/08/11 13:38:45;;;;;;;4.03;2.00;;;40.80;1.00;;;;;;5034734;28;20504;-85
2022/08/11 13:43:55;;;;;;;5.03;2.23;;;40.80;1.00;;;;;;5052746;28;20664;-84
2022/08/11 13:46:23;;;;;;;6.30;2.60;;;40.80;1.00;;;;;;5034045;28;20505;-85
2022/08/11 13:48:51;;;;;;;2.20;2.00;;;40.60;1.00;;;;;;5052040;28;20436;-84
2022/08/11 13:51:30;;;;;;;4.93;2.30;;;40.70;1.00;;;;;;5052391;28;20419;-85
2022/08/11 13:53:59;;;;;;;2.20;2.00;;;40.90;1.00;;;;;;5034401;28;20434;-85
2022/08/11 13:56:26;;;;;;;2.23;2.03;;;40.80;1.00;;;;;;5051607;28;20427;-86
2022/08/11 13:58:54;;;;;;;6.47;2.33;;;40.80;1.00;;;;;;5034416;28;20993;-85
2022/08/11 14:01:21;;;;;;;5.57;2.57;;;40.80;1.00;;;;;;5051928;28;20412;-85
2022/08/11 14:03:49;;;;;;;4.47;2.30;;;40.70;1.00;;;;;;5052088;28;20412;-85
2022/08/11 14:06:18;;;;;;;3.13;2.83;;;40.60;1.00;;;;;;5051074;28;20416;-85
2022/08/11 14:08:45;;;;;;;3.10;2.40;;;40.60;1.00;;;;;;5052238;28;20444;-85
2022/08/11 14:13:58;;;;;;;2.63;2.27;;;40.40;1.00;;;;;;5051788;28;20426;-85
2022/08/11 14:16:31;;;;;;;4.70;2.40;;;40.30;1.00;;;;;;5051623;28;20424;-85
2022/08/11 14:19:01;;;;;;;3.17;2.57;;;40.00;1.00;;;;;;5033749;28;20494;-85
2022/08/11 14:24:16;;;;;;;7.53;2.43;;;39.60;1.00;;;;;;5051876;28;20489;-84
2022/08/11 14:26:43;;;;;;;2.57;2.37;;;39.30;1.00;;;;;;5051253;28;20415;-84
2022/08/11 14:29:15;;;;;;;4.23;2.90;;;39.10;1.00;;;;;;5051674;28;20475;-84
2022/08/11 14:31:56;;;;;;;10.00;2.57;;;38.90;1.00;;;;;;5051978;28;20842;-84
2022/08/11 14:34:28;;;;;;;6.10;2.63;;;38.50;1.00;;;;;;5051670;28;20511;-85
2022/08/11 14:36:57;;;;;;;3.00;2.70;;;38.10;1.00;;;;;;5051464;28;20412;-84
2022/08/11 14:39:29;;;;;;;4.07;2.30;;;37.70;1.00;;;;;;5051809;28;20460;-85
2022/08/11 14:47:53;;;;;;;5.70;2.60;;;36.80;1.00;;;;;;5051002;28;20458;-85
2022/08/11 14:50:28;;;;;;;3.80;2.77;;;36.80;1.00;;;;;;5051750;28;20434;-84
2022/08/11 14:53:07;;;;;;;5.33;2.30;;;36.80;1.00;;;;;;5033492;28;20436;-85
2022/08/11 14:58:29;;;;;;;2.83;2.43;;;36.60;1.00;;;;;;5051511;28;20493;-85
2022/08/11 15:00:58;;;;;;;2.93;2.63;;;36.50;1.00;;;;;;5053170;28;20431;-84
2022/08/11 15:03:25;;;;;;;6.50;2.70;;;36.40;1.00;;;;;;5055924;28;20436;-84
2022/08/11 15:05:53;;;;;;;3.10;2.73;;;36.20;1.00;;;;;;5055180;28;20408;-84
2022/08/11 15:08:53;;;;;;;4.53;2.60;;;36.10;1.00;;;;;;5054519;28;20439;-84
2022/08/11 15:12:07;;;;;;;3.13;2.83;;;36.00;1.00;;;;;;5054936;28;20919;-85
2022/08/11 15:13:53;;;;;;;4.20;2.67;;;36.10;1.00;;;;;;5054897;28;20481;-83
2022/08/11 15:19:04;;;;;;;3.00;2.20;;;36.40;1.00;;;;;;5054919;28;20501;-84
2022/08/11 15:24:19;;;;;;;4.50;2.50;;;36.50;1.00;;;;;;5055266;28;20525;-84
2022/08/11 15:37:45;;;;;;;7.60;2.83;;;36.20;1.00;;;;;;5054335;28;20476;-85
2022/08/11 15:46:09;;;;;;;4.17;2.40;;;36.50;1.00;;;;;;5054194;28;20786;-84
2022/08/11 15:48:45;;;;;;;2.77;2.57;;;36.40;1.00;;;;;;5055094;28;20435;-85
2022/08/11 15:51:16;;;;;;;3.37;2.77;;;36.20;1.00;;;;;;5054957;28;20764;-85
2022/08/11 15:53:50;;;;;;;4.47;2.80;;;36.10;1.00;;;;;;5037317;28;20431;-85
2022/08/11 15:56:17;;;;;;;3.07;2.77;;;36.10;1.00;;;;;;5054344;28;20421;-84
2022/08/11 16:04:29;;;;;;;8.20;2.70;;;36.00;1.00;;;;;;5035507;28;20836;-85
2022/08/11 16:07:10;;;;;;;3.57;2.10;;;35.80;1.00;;;;;;5054160;28;20415;-84
2022/08/11 16:09:50;;;;;;;5.07;2.93;;;35.70;1.00;;;;;;5054512;28;20512;-84
2022/08/11 16:12:20;;;;;;;4.27;2.53;;;35.70;1.00;;;;;;5053869;28;20430;-84
2022/08/11 16:17:50;;;;;;;4.23;3.20;;;35.70;1.00;;;;;;5053721;28;20817;-85
2022/08/11 16:20:19;;;;;;;4.60;3.17;;;35.70;1.00;;;;;;5054287;28;20499;-83
2022/08/11 16:22:49;;;;;;;2.73;2.53;;;35.60;1.00;;;;;;5054183;28;20417;-85
2022/08/11 16:25:20;;;;;;;6.70;2.90;;;35.50;1.00;;;;;;5054041;28;20439;-84
2022/08/11 16:27:53;;;;;;;8.60;4.00;;;35.40;1.00;;;;;;5053018;28;20520;-84
2022/08/11 16:30:20;;;;;;;4.60;2.57;;;35.20;1.00;;;;;;5045187;28;20427;-84
2022/08/11 16:32:51;;;;;;;10.97;3.73;;;35.10;1.00;;;;;;5053606;28;20412;-84
2022/08/11 16:40:53;;;;;;;5.43;2.83;;;35.10;1.00;;;;;;5053723;28;20427;-84
2022/08/11 16:48:57;;;;;;;3.77;3.00;;;35.10;1.00;;;;;;5053669;28;20474;-84
2022/08/11 16:51:23;;;;;;;6.60;2.90;;;35.00;1.00;;;;;;5057230;28;20435;-84
2022/08/11 16:53:49;;;;;;;3.07;2.83;;;34.90;1.00;;;;;;5059793;28;20923;-83
2022/08/11 16:56:38;;;;;;;4.13;3.20;;;34.80;1.00;;;;;;5058138;28;20249;-82
2022/08/11 16:59:14;;;;;;;7.20;3.30;;;34.80;1.00;;;;;;5106521;22;20539;-80
2022/08/11 17:02:01;;;;;;;4.03;2.93;;;34.80;1.00;;;;;;5059460;28;20408;-80
2022/08/11 17:13:21;;;;;;;7.10;2.93;;;34.50;1.00;;;;;;5056136;28;20787;-83
2022/08/11 17:16:07;;;;;;;4.97;3.30;;;34.50;1.00;;;;;;5039537;28;20932;-81
2022/08/11 17:18:48;;;;;;;3.77;2.97;;;34.40;1.00;;;;;;5058822;28;20509;-83
2022/08/11 17:21:26;;;;;;;4.73;3.00;;;34.30;1.00;;;;;;5051332;28;20431;-84
2022/08/11 17:24:04;;;;;;;3.03;2.70;;;34.20;1.00;;;;;;5039331;28;20519;-83
2022/08/11 17:26:56;;;;;;;7.33;3.70;;;34.10;1.00;;;;;;5050518;28;20932;-81
2022/08/11 17:29:32;;;;;;;3.57;3.03;;;34.00;1.00;;;;;;5044283;28;20454;-81
2022/08/11 17:37:37;;;;;;;4.00;3.60;;;33.70;1.00;;;;;;5054567;28;20474;-83
2022/08/11 17:40:06;;;;;;;7.23;2.93;;;33.60;1.00;;;;;;5042396;28;21005;-82
2022/08/11 17:50:53;;;;;;;3.63;2.90;;;33.20;1.00;;;;;;5066571;28;20994;-85
2022/08/11 18:01:37;;;;;;;6.33;3.27;;;32.80;1.00;;;;;;5062367;28;20949;-83
2022/08/11 18:04:06;;;;;;;6.70;4.00;;;32.70;1.00;;;;;;5041019;28;21026;-83
2022/08/11 18:06:34;;;;;;;7.87;3.20;;;32.60;1.00;;;;;;5037564;28;20545;-83
